Time;durP1;ratioP1;P1;durP2;ratioP2;P2;SDS_P1;SDS_P2;PMS_P1;PMS_P2;Temp;Humidity;BMP_temperature;BMP_pressure;BME280_temperature;BME280_humidity;BME280_pressure;Samples;Min_cycle;Max_cycle;Signal;HPM_P1;HPM_P2
2022/06/18 00:02:11;;;;;;;;;16.67;15.00;;;;;29.03;47.48;101589.16;5070842;28;47487;-72
2022/06/18 00:04:40;;;;;;;;;14.00;13.00;;;;;29.01;47.55;101591.06;5069515;28;45470;-71
2022/06/18 00:07:07;;;;;;;;;17.67;15.00;;;;;28.98;48.01;101585.78;5066591;28;64122;-72
2022/06/18 00:09:41;;;;;;;;;14.00;13.67;;;;;28.94;47.73;101582.34;5058241;28;45458;-71
2022/06/18 00:14:58;;;;;;;;;16.00;14.00;;;;;28.88;48.14;101576.34;5067918;28;45419;-72
2022/06/18 00:17:25;;;;;;;;;15.00;13.33;;;;;28.85;48.41;101581.94;5076557;28;55673;-72
2022/06/18 00:19:53;;;;;;;;;14.33;12.00;;;;;28.83;48.37;101581.16;5067288;28;45537;-71
2022/06/18 00:22:21;;;;;;;;;13.33;13.33;;;;;28.79;48.34;101579.53;5053681;28;46359;-72
2022/06/18 00:24:47;;;;;;;;;16.67;13.67;;;;;28.77;48.22;101579.63;5058028;28;45450;-72
2022/06/18 00:27:14;;;;;;;;;15.00;14.00;;;;;28.75;48.80;101573.38;5075799;28;46000;-72
2022/06/18 00:29:40;;;;;;;;;16.67;14.00;;;;;28.71;49.00;101571.81;5073508;28;45450;-72
2022/06/18 00:32:06;;;;;;;;;16.67;15.00;;;;;28.69;48.75;101576.44;5076626;28;46359;-71
2022/06/18 00:34:32;;;;;;;;;16.33;13.00;;;;;28.65;48.98;101577.53;5076276;27;45600;-71
2022/06/18 00:36:58;;;;;;;;;13.00;13.00;;;;;28.62;48.98;101575.88;5069115;28;63313;-71
2022/06/18 00:39:31;;;;;;;;;14.67;14.67;;;;;28.60;49.13;101574.19;5057726;28;45667;-71
2022/06/18 00:42:02;;;;;;;;;14.00;13.33;;;;;28.57;49.34;101575.25;5069261;28;46973;-71
2022/06/18 00:44:31;;;;;;;;;13.67;13.67;;;;;28.57;49.55;101582.53;5057683;28;45351;-71
2022/06/18 00:47:08;;;;;;;;;15.00;15.00;;;;;28.53;49.64;101575.47;5053938;28;45445;-72
2022/06/18 00:49:45;;;;;;;;;14.00;13.00;;;;;28.52;49.64;101576.44;5070918;28;45575;-72
2022/06/18 00:52:24;;;;;;;;;13.67;11.00;;;;;28.50;49.75;101578.34;5058455;28;47611;-72
2022/06/18 00:54:57;;;;;;;;;12.67;11.00;;;;;28.47;50.32;101584.84;5066416;28;45286;-71
2022/06/18 00:57:31;;;;;;;;;10.67;10.67;;;;;28.44;50.41;101571.41;5057217;28;45462;-72
2022/06/18 01:00:07;;;;;;;;;11.00;11.00;;;;;28.43;49.94;101578.66;5051655;28;45761;-71
2022/06/18 01:02:36;;;;;;;;;11.33;11.33;;;;;28.40;50.42;101577.97;5069611;28;47364;-72
2022/06/18 01:05:12;;;;;;;;;10.00;10.00;;;;;28.39;50.44;101574.38;5074217;28;45466;-72
2022/06/18 01:07:37;;;;;;;;;11.00;11.00;;;;;28.38;50.04;101579.88;5057851;28;45223;-72
2022/06/18 01:10:14;;;;;;;;;11.33;11.33;;;;;28.36;50.42;101579.97;5076601;27;60771;-72
2022/06/18 01:12:41;;;;;;;;;12.33;12.00;;;;;28.35;50.33;101574.63;5071005;28;46418;-72
2022/06/18 01:15:09;;;;;;;;;12.67;11.67;;;;;28.34;50.66;101583.72;5078291;28;71476;-71
2022/06/18 01:17:36;;;;;;;;;9.00;9.00;;;;;28.31;50.19;101573.84;5055578;28;45566;-71
2022/06/18 01:20:06;;;;;;;;;11.00;11.00;;;;;28.31;50.99;101583.84;5072573;28;45436;-71
2022/06/18 01:23:07;;;;;;;;;12.67;11.67;;;;;28.28;50.75;101579.41;5058808;28;46695;-72
2022/06/18 01:25:33;;;;;;;;;12.00;12.00;;;;;28.27;50.62;101577.66;5051228;28;45554;-72
2022/06/18 01:27:59;;;;;;;;;12.33;11.33;;;;;28.25;50.42;101579.59;5078726;28;64114;-72
2022/06/18 01:30:26;;;;;;;;;14.00;10.67;;;;;28.24;50.78;101574.25;5052494;28;45597;-72
2022/06/18 01:32:54;;;;;;;;;10.00;10.00;;;;;28.19;50.83;101574.47;5063657;28;47192;-71
2022/06/18 01:35:22;;;;;;;;;12.33;10.00;;;;;28.17;51.09;101566.38;5058395;28;45585;-71
2022/06/18 01:37:48;;;;;;;;;11.00;11.00;;;;;28.14;50.97;101569.28;5059829;28;45218;-72
2022/06/18 01:40:17;;;;;;;;;12.00;12.00;;;;;28.13;50.89;101563.94;5047510;28;45514;-72
2022/06/18 01:42:45;;;;;;;;;12.67;11.00;;;;;28.09;50.97;101560.50;5052976;28;47547;-71
2022/06/18 01:45:21;;;;;;;;;11.67;11.67;;;;;28.07;51.60;101556.97;5055076;28;45192;-72
2022/06/18 01:48:02;;;;;;;;;10.00;10.00;;;;;28.05;51.63;101555.28;5064660;28;45295;-71
2022/06/18 01:50:39;;;;;;;;;11.67;11.67;;;;;28.01;51.14;101549.13;5056549;28;45582;-72
2022/06/18 01:53:11;;;;;;;;;12.00;10.67;;;;;27.99;51.00;101550.16;5064124;28;47586;-72
2022/06/18 01:55:49;;;;;;;;;10.67;10.67;;;;;27.95;51.00;101544.00;5075765;28;45478;-72
2022/06/18 01:58:23;;;;;;;;;10.00;8.33;;;;;27.93;51.62;101549.53;5063440;28;45472;-72
2022/06/18 02:00:54;;;;;;;;;10.00;10.00;;;;;27.90;51.60;101554.22;5063781;28;45252;-72
2022/06/18 02:03:24;;;;;;;;;10.33;10.33;;;;;27.86;51.60;101542.66;5063519;28;45930;-72
2022/06/18 02:05:49;;;;;;;;;13.67;11.00;;;;;27.84;51.85;101538.25;5063911;28;45503;-71
2022/06/18 02:08:17;;;;;;;;;12.00;12.00;;;;;27.82;51.79;101551.00;5085541;27;60895;-71
2022/06/18 02:10:53;;;;;;;;;11.67;10.33;;;;;27.80;52.01;101544.75;5079537;28;45527;-72
2022/06/18 02:13:19;;;;;;;;;11.00;11.00;;;;;27.77;51.92;101551.25;5081990;28;46643;-71
2022/06/18 02:15:46;;;;;;;;;15.00;12.00;;;;;27.74;52.39;101545.06;5077883;28;45550;-72
2022/06/18 02:18:14;;;;;;;;;14.67;12.00;;;;;27.74;52.16;101545.06;5077887;28;45374;-72
2022/06/18 02:20:51;;;;;;;;;12.00;10.67;;;;;27.71;52.45;101545.25;5078962;28;45236;-72
2022/06/18 02:23:23;;;;;;;;;12.33;12.33;;;;;27.68;52.73;101546.22;5081549;28;47331;-72
2022/06/18 02:25:49;;;;;;;;;13.33;13.33;;;;;27.64;52.62;101542.78;5068472;28;45281;-72
2022/06/18 02:28:26;;;;;;;;;14.67;13.00;;;;;27.62;52.77;101539.25;5057901;28;45436;-72
2022/06/18 02:30:57;;;;;;;;;13.33;11.00;;;;;27.59;53.19;101542.16;5078664;28;45366;-72
2022/06/18 02:33:39;;;;;;;;;12.00;12.00;;;;;27.55;53.41;101534.22;5078131;28;46315;-72
2022/06/18 02:36:35;;;;;;;;;14.00;14.00;;;;;27.52;53.12;101532.53;5072673;28;45904;-71
2022/06/18 02:39:25;;;;;;;;;16.33;15.00;;;;;27.49;53.63;101526.41;5044390;28;45382;-72
2022/06/18 02:42:00;;;;;;;;;13.67;13.00;;;;;27.43;54.18;101519.41;5075242;28;45304;-71
2022/06/18 02:44:26;;;;;;;;;15.33;12.67;;;;;27.40;54.41;101509.59;5065692;28;46697;-72
2022/06/18 02:46:51;;;;;;;;;17.33;16.00;;;;;27.40;54.78;101511.44;5055155;28;49404;-72
2022/06/18 02:49:17;;;;;;;;;14.00;12.33;;;;;27.35;54.96;101503.50;5074532;28;45249;-72
2022/06/18 02:51:44;;;;;;;;;13.67;12.33;;;;;27.35;54.65;101502.63;5063160;28;45569;-71
2022/06/18 02:54:19;;;;;;;;;15.67;14.33;;;;;27.30;55.30;101494.72;5040442;28;47519;-71
2022/06/18 02:56:46;;;;;;;;;15.33;14.00;;;;;27.28;55.05;101491.22;5069312;28;45561;-72
2022/06/18 02:59:11;;;;;;;;;15.00;13.67;;;;;27.26;55.19;101494.94;5075048;28;45383;-71
2022/06/18 03:01:37;;;;;;;;;16.33;15.00;;;;;27.22;56.09;101488.81;5070579;28;63156;-71
2022/06/18 03:04:03;;;;;;;;;14.00;12.67;;;;;27.20;56.00;101484.38;5077299;28;73948;-71
2022/06/18 03:06:30;;;;;;;;;14.00;12.00;;;;;27.16;56.10;101486.34;5077902;28;45350;-71
2022/06/18 03:08:57;;;;;;;;;14.33;13.33;;;;;27.13;55.76;101483.81;5078285;27;45439;-71
2022/06/18 03:14:09;;;;;;;;;15.00;13.00;;;;;27.07;56.42;101468.72;5071836;28;45410;-71
2022/06/18 03:16:35;;;;;;;;;15.00;13.67;;;;;27.04;56.44;101467.94;5071099;28;45271;-71
2022/06/18 03:19:01;;;;;;;;;14.00;14.00;;;;;27.02;56.39;101462.59;5074382;28;45372;-71
2022/06/18 03:21:44;;;;;;;;;13.00;12.00;;;;;26.98;57.50;101451.97;5070469;28;45378;-71
2022/06/18 03:24:09;;;;;;;;;13.67;13.67;;;;;26.96;57.61;101454.75;5076099;28;47280;-72
2022/06/18 03:26:35;;;;;;;;;15.00;15.00;;;;;26.93;57.91;101454.03;5073651;28;45591;-71
2022/06/18 03:29:01;;;;;;;;;16.00;14.00;;;;;26.90;57.38;101446.94;5077023;28;45307;-72
2022/06/18 03:31:27;;;;;;;;;13.67;13.67;;;;;26.88;57.46;101454.22;5072487;28;45637;-71
2022/06/18 03:33:52;;;;;;;;;12.67;11.33;;;;;26.85;57.36;101452.56;5063589;28;45628;-71
2022/06/18 03:36:19;;;;;;;;;14.00;12.00;;;;;26.83;57.80;101451.75;5077702;28;45323;-71
2022/06/18 03:38:45;;;;;;;;;13.00;12.00;;;;;26.81;57.83;101452.78;5077027;27;45716;-71
2022/06/18 03:41:12;;;;;;;;;12.00;11.00;;;;;26.79;57.75;101449.25;5075834;28;46604;-71
2022/06/18 03:43:37;;;;;;;;;11.33;11.33;;;;;26.76;58.29;101447.56;5071509;28;46745;-72
2022/06/18 03:46:07;;;;;;;;;14.00;13.00;;;;;26.74;58.27;101449.47;5076331;28;63076;-72
2022/06/18 03:48:42;;;;;;;;;12.00;12.00;;;;;26.73;58.29;101444.09;5071015;28;45577;-71
2022/06/18 03:51:08;;;;;;;;;12.00;12.00;;;;;26.71;58.01;101446.91;5072339;28;45413;-71
2022/06/18 03:53:33;;;;;;;;;14.67;11.33;;;;;26.69;57.94;101447.94;5077536;28;47195;-71
2022/06/18 03:55:58;;;;;;;;;11.00;11.00;;;;;26.67;57.77;101447.97;5071607;28;68432;-71
2022/06/18 03:58:24;;;;;;;;;10.67;10.00;;;;;26.66;58.73;101448.06;5072939;28;60192;-72
2022/06/18 04:00:50;;;;;;;;;12.00;12.00;;;;;26.65;58.34;101458.03;5067826;27;46154;-71
2022/06/18 04:03:16;;;;;;;;;11.67;11.67;;;;;26.61;58.23;101446.44;5051344;28;47424;-72
2022/06/18 04:05:41;;;;;;;;;16.67;14.00;;;;;26.59;59.08;101448.34;5059580;28;45567;-72
2022/06/18 04:08:09;;;;;;;;;12.67;12.67;;;;;26.59;58.58;101445.66;5061082;27;45237;-72
2022/06/18 04:10:34;;;;;;;;;12.00;12.00;;;;;26.56;59.19;101440.34;5058506;28;45495;-71
2022/06/18 04:13:00;;;;;;;;;12.33;10.33;;;;;26.56;59.43;101440.34;5075910;28;50637;-72
2022/06/18 04:15:25;;;;;;;;;11.00;10.00;;;;;26.55;58.85;101438.59;5073653;27;61812;-71
2022/06/18 04:17:50;;;;;;;;;11.33;10.33;;;;;26.53;59.21;101432.38;5069693;28;63336;-71
2022/06/18 04:20:37;;;;;;;;;12.00;11.33;;;;;26.54;59.82;101436.84;5072384;28;45458;-72
2022/06/18 04:23:03;;;;;;;;;10.67;10.33;;;;;26.53;59.43;101432.38;5073562;28;47026;-71
2022/06/18 04:25:28;;;;;;;;;12.33;11.33;;;;;26.52;59.57;101433.31;5068141;28;45431;-72
2022/06/18 04:27:57;;;;;;;;;9.33;9.33;;;;;26.53;60.11;101432.38;5064218;28;45400;-71
2022/06/18 04:30:23;;;;;;;;;14.33;9.67;;;;;26.53;60.39;101432.38;5072529;28;45525;-71
2022/06/18 04:32:49;;;;;;;;;12.00;11.00;;;;;26.53;59.64;101435.09;5074844;28;47448;-72
2022/06/18 04:35:14;;;;;;;;;10.67;10.67;;;;;26.53;59.67;101432.38;5075189;28;68045;-72
2022/06/18 04:37:42;;;;;;;;;10.00;9.00;;;;;26.54;60.32;101431.44;5070413;28;45526;-72
2022/06/18 04:40:10;;;;;;;;;10.00;10.00;;;;;26.55;59.85;101437.72;5060461;28;45304;-72
2022/06/18 04:42:35;;;;;;;;;10.00;10.00;;;;;26.54;60.55;101436.84;5058528;28;46731;-72
2022/06/18 04:45:00;;;;;;;;;9.00;9.00;;;;;26.56;60.00;101436.78;5071988;28;64353;-72
2022/06/18 04:47:26;;;;;;;;;11.00;9.00;;;;;26.58;60.03;101445.69;5070428;28;45852;-72
2022/06/18 04:49:51;;;;;;;;;8.00;8.00;;;;;26.57;60.62;101439.41;5071622;28;60606;-71
2022/06/18 04:52:17;;;;;;;;;10.00;10.00;;;;;26.61;60.81;101442.84;5076192;28;46400;-71
2022/06/18 04:54:42;;;;;;;;;10.00;10.00;;;;;26.62;60.45;101450.91;5075945;28;45329;-71
2022/06/18 04:57:08;;;;;;;;;9.00;8.33;;;;;26.62;60.60;101445.47;5076535;28;45301;-72
2022/06/18 04:59:33;;;;;;;;;11.33;8.33;;;;;26.62;60.70;101437.34;5076528;28;45573;-71
2022/06/18 05:02:07;;;;;;;;;10.67;9.00;;;;;26.66;61.92;101446.22;5074758;28;47191;-72
2022/06/18 05:04:32;;;;;;;;;12.00;11.67;;;;;26.68;61.98;101448.88;5057883;28;45399;-71
2022/06/18 05:06:58;;;;;;;;;12.00;12.00;;;;;26.68;62.70;101440.72;5070418;28;45324;-72
2022/06/18 05:09:23;;;;;;;;;12.00;12.00;;;;;26.72;62.56;101443.22;5062981;27;45577;-72
2022/06/18 05:11:49;;;;;;;;;12.33;12.33;;;;;26.73;63.34;101436.84;5070632;28;47429;-71
2022/06/18 05:14:14;;;;;;;;;13.33;11.33;;;;;26.74;63.76;101435.03;5061380;28;65996;-72
2022/06/18 05:16:41;;;;;;;;;14.33;13.00;;;;;26.76;64.00;101431.31;5075773;28;45434;-72
2022/06/18 05:19:21;;;;;;;;;12.00;12.00;;;;;26.77;64.70;101434.91;5076198;28;45323;-71
2022/06/18 05:21:47;;;;;;;;;16.33;12.33;;;;;26.79;64.78;101431.19;5075507;28;46728;-72
2022/06/18 05:24:12;;;;;;;;;18.33;12.67;;;;;26.82;64.97;101427.44;5075165;28;63698;-71
2022/06/18 05:26:37;;;;;;;;;19.67;13.00;;;;;26.84;65.77;101422.81;5075639;28;60213;-72
2022/06/18 05:29:03;;;;;;;;;13.33;13.00;;;;;26.87;66.30;101425.38;5057486;28;58952;-71
2022/06/18 05:31:28;;;;;;;;;14.00;12.67;;;;;26.88;66.56;101428.00;5072693;28;53295;-71
2022/06/18 05:33:53;;;;;;;;;12.67;11.67;;;;;26.88;66.78;101411.75;5059471;28;67344;-72
2022/06/18 05:36:19;;;;;;;;;13.33;13.33;;;;;26.93;67.38;101425.09;5075973;28;45421;-72
2022/06/18 05:38:45;;;;;;;;;15.33;14.00;;;;;26.95;67.20;101416.88;5075719;28;45522;-72
2022/06/18 05:41:11;;;;;;;;;11.33;11.33;;;;;26.98;67.64;101414.03;5076039;28;46730;-71
2022/06/18 05:43:36;;;;;;;;;13.00;12.33;;;;;26.98;68.73;101408.59;5074916;28;63361;-71
2022/06/18 05:46:01;;;;;;;;;17.33;14.67;;;;;27.01;68.26;101408.47;5074048;28;45584;-71
2022/06/18 05:48:27;;;;;;;;;12.33;12.33;;;;;27.04;69.17;101406.47;5071129;28;61011;-72
2022/06/18 05:50:52;;;;;;;;;14.33;12.00;;;;;27.06;69.55;101409.09;5066470;28;46612;-72
2022/06/18 05:53:17;;;;;;;;;16.33;12.67;;;;;27.08;69.52;101408.13;5073079;28;45354;-71
2022/06/18 05:55:43;;;;;;;;;12.67;11.67;;;;;27.13;69.44;101402.47;5075312;28;50966;-72
2022/06/18 05:58:09;;;;;;;;;12.00;11.00;;;;;27.15;69.13;101404.13;5075959;28;45515;-72
2022/06/18 06:00:35;;;;;;;;;11.33;11.33;;;;;27.18;69.20;101396.84;5073733;28;47482;-71
2022/06/18 06:03:00;;;;;;;;;14.00;11.00;;;;;27.20;69.16;101398.50;5190332;22;45467;-72
2022/06/18 06:05:26;;;;;;;;;11.33;9.00;;;;;27.24;68.81;101399.22;5085000;27;45563;-71
2022/06/18 06:07:51;;;;;;;;;14.33;11.67;;;;;27.27;68.22;101402.69;5094657;27;45402;-72
2022/06/18 06:13:05;;;;;;;;;10.00;10.00;;;;;27.35;67.74;101399.56;5099916;27;45264;-72
2022/06/18 06:15:30;;;;;;;;;11.00;11.00;;;;;27.37;67.56;101400.38;5098680;27;45424;-71
2022/06/18 06:17:56;;;;;;;;;10.00;10.00;;;;;27.40;66.61;101387.53;5095691;27;45448;-72
2022/06/18 06:20:28;;;;;;;;;11.00;10.00;;;;;27.45;66.38;101395.44;5097641;27;65949;-71
2022/06/18 06:22:53;;;;;;;;;13.67;11.67;;;;;27.48;64.57;101387.13;5099652;27;45295;-72
2022/06/18 06:25:18;;;;;;;;;11.00;10.33;;;;;27.53;64.11;101390.50;5100062;27;45295;-72
2022/06/18 06:27:44;;;;;;;;;10.00;9.00;;;;;27.58;64.05;101398.41;5100535;27;45351;-72
2022/06/18 06:30:12;;;;;;;;;13.67;10.00;;;;;27.61;63.96;101396.44;5099134;27;67787;-71
2022/06/18 06:32:37;;;;;;;;;11.00;10.00;;;;;27.66;63.98;101396.19;5075815;28;45380;-71
2022/06/18 06:35:03;;;;;;;;;11.00;9.33;;;;;27.70;63.76;101392.41;5087496;27;54261;-72
2022/06/18 06:37:28;;;;;;;;;11.33;11.00;;;;;27.72;63.29;101398.63;5098986;27;45280;-71
2022/06/18 06:39:53;;;;;;;;;10.00;10.00;;;;;27.76;63.26;101386.66;5098789;27;47239;-71
2022/06/18 06:42:18;;;;;;;;;12.00;10.33;;;;;27.81;63.45;101392.72;5098040;27;61517;-71
2022/06/18 06:44:44;;;;;;;;;10.00;10.00;;;;;27.83;63.28;101398.94;5087792;27;59078;-71
2022/06/18 06:47:10;;;;;;;;;11.33;9.00;;;;;27.87;63.26;101399.66;5097742;27;45573;-71
2022/06/18 06:49:35;;;;;;;;;11.33;9.00;;;;;27.88;62.76;101405.00;5099000;27;46728;-71
2022/06/18 06:52:00;;;;;;;;;12.33;12.33;;;;;27.94;62.74;101401.09;5096473;27;61426;-71
2022/06/18 06:54:26;;;;;;;;;12.00;9.67;;;;;27.96;61.79;101404.59;5098220;27;56898;-71
2022/06/18 06:59:35;;;;;;;;;11.33;11.33;;;;;28.02;61.65;101400.66;5099015;27;45899;-71
2022/06/18 07:02:02;;;;;;;;;11.00;11.00;;;;;28.05;61.35;101395.97;5097188;27;66465;-71
2022/06/18 07:04:27;;;;;;;;;11.00;11.00;;;;;28.09;61.92;101402.13;5090602;27;47020;-71
2022/06/18 07:06:56;;;;;;;;;10.67;10.33;;;;;28.13;62.43;101401.00;5092604;27;50792;-71
2022/06/18 07:09:21;;;;;;;;;12.67;12.67;;;;;28.16;61.94;101400.81;5097596;27;46639;-71
2022/06/18 07:11:46;;;;;;;;;11.00;10.00;;;;;28.19;62.13;101400.69;5092122;27;64492;-71
2022/06/18 07:14:12;;;;;;;;;11.67;11.67;;;;;28.23;62.24;101391.41;5092750;27;45377;-71
2022/06/18 07:16:47;;;;;;;;;12.00;9.00;;;;;28.28;63.45;101393.84;5097524;27;45457;-71
2022/06/18 07:19:16;;;;;;;;;11.33;11.33;;;;;28.30;64.16;101398.25;5091488;27;46410;-72
2022/06/18 07:21:41;;;;;;;;;9.67;9.67;;;;;28.33;64.01;101395.38;5092165;27;45276;-73
2022/06/18 07:24:07;;;;;;;;;10.00;10.00;;;;;28.35;64.26;101384.47;5091958;27;52043;-73
2022/06/18 07:26:32;;;;;;;;;8.00;8.00;;;;;28.37;64.26;101386.13;5092020;27;45478;-72
2022/06/18 07:28:58;;;;;;;;;12.67;9.67;;;;;28.39;64.65;101392.38;5094944;27;59751;-73
2022/06/18 07:31:30;;;;;;;;;11.67;10.00;;;;;28.40;63.77;101388.69;5097235;27;45509;-73
2022/06/18 07:33:56;;;;;;;;;10.00;10.00;;;;;28.43;64.19;101395.78;5094791;27;45413;-72
2022/06/18 07:36:22;;;;;;;;;11.00;10.00;;;;;28.44;63.60;101395.72;5085975;27;45920;-72
2022/06/18 07:38:47;;;;;;;;;11.00;9.67;;;;;28.47;62.71;101389.22;5096610;27;46573;-73
2022/06/18 07:41:16;;;;;;;;;11.67;10.00;;;;;28.50;63.06;101389.06;5096414;27;45521;-73
2022/06/18 07:43:45;;;;;;;;;11.00;11.00;;;;;28.51;63.28;101385.38;5077243;27;46459;-71
2022/06/18 07:46:13;;;;;;;;;12.00;9.00;;;;;28.54;63.84;101389.75;5087967;27;45326;-71
2022/06/18 07:48:39;;;;;;;;;12.00;10.33;;;;;28.54;63.53;101384.31;5092256;27;46574;-71
2022/06/18 07:51:06;;;;;;;;;13.67;10.67;;;;;28.55;64.02;101381.53;5094919;27;45514;-71
2022/06/18 07:53:32;;;;;;;;;9.00;9.00;;;;;28.54;63.99;101385.19;5096619;27;45694;-71
2022/06/18 07:55:57;;;;;;;;;11.33;10.33;;;;;28.58;64.04;101378.63;5092198;27;46006;-71
2022/06/18 07:58:24;;;;;;;;;12.00;9.67;;;;;28.60;64.06;101373.97;5088663;27;46530;-71
2022/06/18 08:00:49;;;;;;;;;10.00;10.00;;;;;28.62;63.91;101373.91;5093986;27;45365;-71
2022/06/18 08:03:16;;;;;;;;;10.00;10.00;;;;;28.64;63.45;101370.13;5092373;27;45524;-72
2022/06/18 08:05:42;;;;;;;;;16.00;13.00;;;;;28.66;63.14;101360.06;5093774;27;45568;-71
2022/06/18 08:08:07;;;;;;;;;11.00;11.00;;;;;28.67;62.70;101359.09;5093074;27;46433;-72
2022/06/18 08:10:35;;;;;;;;;12.67;12.00;;;;;28.69;62.93;101359.88;5094741;27;56295;-72
2022/06/18 08:13:00;;;;;;;;;11.33;11.33;;;;;28.73;60.98;101352.44;5092974;27;45580;-71
2022/06/18 08:15:25;;;;;;;;;13.00;11.00;;;;;28.77;62.63;101354.03;5090496;27;45561;-71
2022/06/18 08:17:51;;;;;;;;;15.33;12.33;;;;;28.80;62.76;101344.81;5092102;27;70591;-71
2022/06/18 08:20:16;;;;;;;;;13.33;11.00;;;;;28.83;63.08;101339.22;5095167;27;61897;-71
2022/06/18 08:22:44;;;;;;;;;15.67;12.00;;;;;28.85;63.05;101338.13;5095493;27;45351;-71
2022/06/18 08:25:11;;;;;;;;;15.33;13.33;;;;;28.89;61.81;101353.31;5092726;27;45603;-71
2022/06/18 08:27:37;;;;;;;;;14.00;13.00;;;;;28.93;62.36;101346.78;5078085;27;47772;-72
2022/06/18 08:30:04;;;;;;;;;14.33;13.00;;;;;28.93;61.94;101338.63;5093837;27;45288;-72
2022/06/18 08:32:29;;;;;;;;;12.33;11.00;;;;;28.98;62.16;101343.81;5091894;27;45430;-71
2022/06/18 08:34:54;;;;;;;;;14.33;13.00;;;;;28.99;61.91;101334.66;5094421;27;51366;-71
2022/06/18 08:37:20;;;;;;;;;13.33;13.33;;;;;29.01;60.83;101337.28;5090087;27;46284;-71
2022/06/18 08:39:45;;;;;;;;;14.67;13.00;;;;;29.01;57.22;101330.00;5089800;27;64818;-71
2022/06/18 08:42:19;;;;;;;;;13.33;11.67;;;;;29.10;57.58;101334.91;5089985;27;64758;-72
2022/06/18 08:44:53;;;;;;;;;11.67;11.67;;;;;29.15;56.07;101319.22;5094621;27;45695;-71
2022/06/18 08:47:43;;;;;;;;;12.00;12.00;;;;;29.26;56.59;101318.56;5091275;27;46393;-71
2022/06/18 08:50:43;;;;;;;;;14.67;13.33;;;;;29.31;57.35;101311.00;5090916;27;45600;-71
2022/06/18 08:53:11;;;;;;;;;16.67;15.33;;;;;29.34;57.44;101315.38;5075295;27;45304;-72
2022/06/18 08:55:55;;;;;;;;;14.67;12.33;;;;;29.37;54.98;101301.59;5093537;27;45457;-71
2022/06/18 08:58:40;;;;;;;;;12.67;12.67;;;;;29.44;56.63;101302.97;5089997;27;46561;-71
2022/06/18 09:01:10;;;;;;;;;16.00;16.00;;;;;29.47;57.04;101298.25;5094929;27;45442;-71
2022/06/18 09:04:05;;;;;;;;;18.00;16.00;;;;;29.50;56.93;101291.72;5072333;27;46021;-73
2022/06/18 09:06:47;;;;;;;;;15.33;15.33;;;;;29.55;55.82;101292.34;5078046;27;45534;-70
2022/06/18 09:09:23;;;;;;;;;18.00;17.00;;;;;29.59;54.49;101283.03;5091976;27;47516;-70
2022/06/18 09:12:01;;;;;;;;;12.33;12.33;;;;;29.68;53.48;101285.19;5088058;27;45485;-70
2022/06/18 09:14:37;;;;;;;;;18.67;17.67;;;;;29.75;55.05;101281.13;5077097;27;46016;-71
2022/06/18 09:17:23;;;;;;;;;17.33;16.33;;;;;29.81;54.50;101287.16;5092084;27;45304;-71
2022/06/18 09:20:09;;;;;;;;;18.33;18.33;;;;;29.86;55.58;101276.84;5094459;27;47420;-73
2022/06/18 09:22:46;;;;;;;;;14.00;12.33;;;;;29.88;55.82;101278.53;5093564;27;45314;-73
2022/06/18 09:25:15;;;;;;;;;23.33;23.00;;;;;29.92;55.89;101281.91;5089180;27;45335;-73
2022/06/18 09:27:50;;;;;;;;;22.67;21.00;;;;;29.93;55.82;101272.75;5093615;27;45441;-73
2022/06/18 09:30:22;;;;;;;;;24.67;22.00;;;;;29.93;56.85;101267.31;5076814;27;46596;-73
2022/06/18 09:32:55;;;;;;;;;21.33;21.33;;;;;29.91;56.65;101263.81;5088850;27;45393;-73
2022/06/18 09:35:28;;;;;;;;;21.67;21.67;;;;;29.88;56.86;101259.47;5083154;27;46107;-73
2022/06/18 09:38:01;;;;;;;;;21.67;20.67;;;;;29.89;56.24;101252.16;5077253;27;45526;-73
2022/06/18 09:40:39;;;;;;;;;25.67;21.67;;;;;29.92;55.93;101249.22;5078886;27;47707;-73
2022/06/18 09:43:42;;;;;;;;;28.33;21.67;;;;;29.96;53.46;101253.50;5080140;27;45469;-73
2022/06/18 09:46:34;;;;;;;;;22.33;20.00;;;;;30.03;55.15;101238.53;5065758;27;45427;-73
2022/06/18 09:48:59;;;;;;;;;20.67;17.00;;;;;30.07;52.68;101228.31;5092905;27;45645;-72
2022/06/18 09:51:36;;;;;;;;;19.67;17.67;;;;;30.12;53.61;101237.09;5095209;27;46472;-72
2022/06/18 09:54:05;;;;;;;;;22.67;16.33;;;;;30.17;53.87;101224.94;5078864;27;45484;-73
2022/06/18 09:56:35;;;;;;;;;19.00;16.67;;;;;30.21;54.20;101223.75;5089722;27;45603;-73
2022/06/18 09:59:06;;;;;;;;;23.00;16.67;;;;;30.25;53.93;101213.53;5097523;27;45150;-73
2022/06/18 10:01:34;;;;;;;;;19.00;16.00;;;;;30.32;53.00;101220.34;5080101;27;47383;-73
2022/06/18 10:06:55;;;;;;;;;8.33;8.33;;;;;30.43;48.34;101209.59;5083827;27;45387;-70
2022/06/18 10:09:43;;;;;;;;;16.33;15.67;;;;;30.55;49.80;101215.22;5081418;27;45466;-73
2022/06/18 10:12:26;;;;;;;;;18.67;17.00;;;;;30.63;52.08;101204.66;5081280;27;47348;-72
2022/06/18 10:14:55;;;;;;;;;18.67;15.33;;;;;30.64;49.30;101201.84;5093818;27;45481;-73
2022/06/18 10:17:58;;;;;;;;;13.33;13.33;;;;;30.67;52.44;101200.75;5091246;27;45545;-73
2022/06/18 10:21:03;;;;;;;;;12.00;9.00;;;;;30.73;46.83;101197.63;5086972;27;45209;-76
2022/06/18 10:23:38;;;;;;;;;13.67;7.00;;;;;30.90;44.77;101202.84;5088673;27;47813;-76
2022/06/18 10:26:16;;;;;;;;;9.33;8.33;;;;;31.03;41.92;101195.56;5090612;27;45579;-76
2022/06/18 10:28:53;;;;;;;;;12.67;9.33;;;;;31.22;43.05;101186.97;5092922;27;45378;-74
2022/06/18 10:31:55;;;;;;;;;8.00;8.00;;;;;31.39;39.44;101183.09;5091778;27;45385;-76
2022/06/18 10:34:41;;;;;;;;;8.00;6.00;;;;;31.53;38.41;101184.81;5094140;27;47352;-78
2022/06/18 10:37:23;;;;;;;;;13.33;8.00;;;;;31.68;38.64;101183.72;5091128;27;45429;-75
2022/06/18 10:40:36;;;;;;;;;11.33;8.33;;;;;31.81;39.84;101167.38;5093640;27;45386;-75
2022/06/18 10:43:19;;;;;;;;;12.00;9.67;;;;;31.97;39.50;101164.41;5036279;27;45538;-75
2022/06/18 10:45:51;;;;;;;;;12.33;10.00;;;;;32.09;40.14;101160.75;5092728;27;47646;-75
2022/06/18 10:48:24;;;;;;;;;12.33;10.33;;;;;32.22;38.41;101156.09;5092951;27;46377;-74
2022/06/18 10:50:52;;;;;;;;;8.00;8.00;;;;;32.36;38.22;101152.38;5080792;27;45782;-75
2022/06/18 10:53:20;;;;;;;;;34.50;31.25;;;;;32.50;38.18;101145.88;5093194;27;46011;-76
2022/06/18 10:55:56;;;;;;;;;10.67;10.33;;;;;32.64;39.22;101145.66;5093033;27;47084;-75
2022/06/18 10:58:21;;;;;;;;;23.67;21.67;;;;;32.74;39.71;101154.03;5096611;27;45185;-74
2022/06/18 11:01:00;;;;;;;;;14.33;13.67;;;;;32.84;39.34;101152.34;5091288;27;48810;-74
2022/06/18 11:03:30;;;;;;;;;12.00;10.33;;;;;32.92;39.57;101139.00;5078592;27;45512;-74
2022/06/18 11:05:56;;;;;;;;;16.00;13.33;;;;;32.98;38.86;101141.25;5083781;27;48111;-74
2022/06/18 11:08:23;;;;;;;;;13.67;10.67;;;;;33.06;38.72;101137.88;5091853;27;45405;-75
2022/06/18 11:10:50;;;;;;;;;11.00;11.00;;;;;33.12;39.06;101120.97;5092522;27;45469;-75
2022/06/18 11:13:36;;;;;;;;;11.00;9.00;;;;;33.22;38.73;101121.13;5080066;27;45528;-75
2022/06/18 11:16:16;;;;;;;;;8.67;8.33;;;;;33.32;38.73;101117.53;5070638;27;46404;-75
2022/06/18 11:18:53;;;;;;;;;12.67;10.00;;;;;33.43;37.70;101118.56;5094471;27;45507;-75
2022/06/18 11:21:31;;;;;;;;;11.33;10.33;;;;;33.56;36.25;101116.59;5094521;27;45549;-74
2022/06/18 11:24:05;;;;;;;;;12.67;9.67;;;;;33.67;37.11;101113.84;5096675;27;45384;-76
2022/06/18 11:26:34;;;;;;;;;9.33;9.00;;;;;33.77;35.45;101108.47;5097012;27;46660;-76
2022/06/18 11:29:04;;;;;;;;;11.33;8.67;;;;;33.84;35.81;101110.59;5094169;27;50179;-75
2022/06/18 11:31:34;;;;;;;;;13.00;9.67;;;;;33.93;36.00;101103.53;5090174;27;45481;-76
2022/06/18 11:34:03;;;;;;;;;17.67;15.33;;;;;34.00;35.66;101093.78;5096483;27;45430;-77
2022/06/18 11:36:36;;;;;;;;;15.00;13.00;;;;;34.06;34.98;101089.66;5093046;27;47420;-77
2022/06/18 11:39:03;;;;;;;;;14.00;13.00;;;;;34.15;35.26;101091.63;5094530;27;45686;-74
2022/06/18 11:41:34;;;;;;;;;10.00;9.67;;;;;34.24;35.59;101088.09;5091232;27;45547;-75